Luxemburg, Iowa
Current Conditions -  °F | °C
As of 3:55 PM on Saturday 20 Dec 2014 (Local Time) from KDBQ Reporting Station
Haze Haze  
Wind Chill: 22°   Ceiling: 900
Heat Index: 30°   Visibility: 3mi
Dew Point: 26°   Wind: 9mph
Humidity: 85%   Direction: 160°SSE
Pressure: 30.18"   Gusts: NA
Location:  42.6°N, 91.07°W
Report Text: KDBQ 202155Z 16008KT 3SM BR OVC009 M01/M03 A3018 RMK AO2 T10111033
Loading
Personal Weather Stations






























Interactive Weather Map New forecast layout! Learn more

10-Day Weather Forecast

Advertisements
Track Severe Weather on mobile